Terminal Aerodrome Forecast
Issued by NWS

Current Version | Previous Version | Graphics & Text | Print | Product List | Glossary On
Versions: 1 2 3 4 5 6 7 8 9 10 11 12 13 14 15 16 17 18 19 20 21
000
FTUS41 KPBZ 301138
TAFHLG
TAF
KHLG 301138Z 3012/0112 07005KT P6SM OVC006
     FM301400 07005KT P6SM OVC012
     FM301600 12007KT P6SM BKN050
     FM302000 12005KT 3SM -RA OVC035
     FM302300 12005KT 2SM -RA BR OVC020
     FM010500 15007KT 4SM -RA OVC007=

USA.gov is the U.S. government's official web portal to all federal, state and local government web resources and services.